Time,TemperatureF,DewpointF,PressureIn,WindDirection,WindDirectionDegrees,WindSpeedMPH,WindSpeedGustMPH,Humidity,HourlyPrecipIn,Conditions,Clouds,dailyrainin,SoftwareType,DateUTC
2013-09-17 00:09:00,61.8,61.0,30.20,ESE,115,7.0,10.0,98,0.00,,,0.00,weatherlink.com 1.10,2013-09-17 05:09:00,
2013-09-17 00:24:00,61.9,61.0,30.19,ESE,102,7.0,10.0,97,0.00,,,0.00,weatherlink.com 1.10,2013-09-17 05:24:00,
2013-09-17 00:39:00,62.0,61.0,30.19,ESE,121,5.0,11.0,97,0.00,,,0.00,weatherlink.com 1.10,2013-09-17 05:39:00,
2013-09-17 00:54:00,62.0,61.0,30.19,ESE,116,5.0,11.0,96,0.00,,,0.00,weatherlink.com 1.10,2013-09-17 05:54:00,
2013-09-17 01:09:00,62.0,61.0,30.20,ESE,115,5.0,7.0,96,0.00,,,0.00,weatherlink.com 1.10,2013-09-17 06:09:00,
2013-09-17 01:24:00,62.0,61.0,30.20,ESE,123,4.0,8.0,96,0.00,,,0.00,weatherlink.com 1.10,2013-09-17 06:24:00,
2013-09-17 01:39:00,62.2,61.0,30.20,East,92,5.0,10.0,95,0.00,,,0.00,weatherlink.com 1.10,2013-09-17 06:39:00,
2013-09-17 01:54:00,62.2,61.0,30.20,SE,131,3.0,6.0,95,0.00,,,0.00,weatherlink.com 1.10,2013-09-17 06:54:00,
2013-09-17 02:09:00,62.2,61.0,30.20,ESE,120,5.0,5.0,95,0.00,,,0.00,weatherlink.com 1.10,2013-09-17 07:09:00,
2013-09-17 02:24:00,62.1,61.0,30.19,East,94,3.0,7.0,95,0.00,,,0.00,weatherlink.com 1.10,2013-09-17 07:24:00,
2013-09-17 02:39:00,62.0,61.0,30.20,ESE,117,3.0,7.0,95,0.00,,,0.00,weatherlink.com 1.10,2013-09-17 07:39:00,
2013-09-17 02:54:00,62.0,61.0,30.19,East,90,1.0,6.0,95,0.00,,,0.00,weatherlink.com 1.10,2013-09-17 07:54:00,
2013-09-17 03:09:00,61.8,60.0,30.18,ESE,105,3.0,7.0,95,0.00,,,0.00,weatherlink.com 1.10,2013-09-17 08:09:00,
2013-09-17 03:24:00,61.7,61.0,30.18,ESE,106,4.0,5.0,96,0.00,,,0.00,weatherlink.com 1.10,2013-09-17 08:24:00,
2013-09-17 03:39:00,61.7,61.0,30.18,ESE,106,3.0,5.0,96,0.01,,,0.01,weatherlink.com 1.10,2013-09-17 08:39:00,
2013-09-17 03:54:00,61.7,61.0,30.18,ESE,120,0.0,5.0,96,0.01,,,0.01,weatherlink.com 1.10,2013-09-17 08:54:00,
2013-09-17 04:09:00,61.6,61.0,30.19,ESE,116,2.0,3.0,96,0.01,,,0.01,weatherlink.com 1.10,2013-09-17 09:09:00,
2013-09-17 04:24:00,61.6,61.0,30.18,ESE,117,2.0,4.0,96,0.02,,,0.02,weatherlink.com 1.10,2013-09-17 09:24:00,
2013-09-17 04:39:00,61.6,61.0,30.18,ESE,117,2.0,4.0,97,0.01,,,0.02,weatherlink.com 1.10,2013-09-17 09:39:00,
2013-09-17 04:54:00,61.5,61.0,30.18,ESE,114,2.0,5.0,97,0.01,,,0.02,weatherlink.com 1.10,2013-09-17 09:54:00,
2013-09-17 05:09:00,61.4,61.0,30.18,ESE,117,2.0,5.0,97,0.01,,,0.02,weatherlink.com 1.10,2013-09-17 10:09:00,
2013-09-17 05:24:00,61.4,61.0,30.17,ESE,114,4.0,5.0,97,0.02,,,0.04,weatherlink.com 1.10,2013-09-17 10:24:00,
2013-09-17 05:39:00,61.4,61.0,30.17,ESE,107,4.0,7.0,97,0.03,,,0.05,weatherlink.com 1.10,2013-09-17 10:39:00,
2013-09-17 05:54:00,61.4,61.0,30.17,SE,130,3.0,8.0,97,0.03,,,0.05,weatherlink.com 1.10,2013-09-17 10:54:00,
2013-09-17 06:09:00,61.4,61.0,30.17,SE,129,2.0,8.0,97,0.03,,,0.05,weatherlink.com 1.10,2013-09-17 11:09:00,
2013-09-17 06:24:00,61.4,61.0,30.18,ESE,121,5.0,7.0,97,0.01,,,0.05,weatherlink.com 1.10,2013-09-17 11:24:00,
2013-09-17 06:39:00,61.6,61.0,30.18,SE,140,7.0,7.0,98,0.00,,,0.05,weatherlink.com 1.10,2013-09-17 11:39:00,
2013-09-17 06:54:00,61.6,61.0,30.18,SE,138,3.0,7.0,98,0.01,,,0.06,weatherlink.com 1.10,2013-09-17 11:54:00,
2013-09-17 07:09:00,61.4,61.0,30.19,SE,134,5.0,7.0,98,0.02,,,0.07,weatherlink.com 1.10,2013-09-17 12:09:00,
2013-09-17 07:25:00,61.4,61.0,30.19,SE,138,3.0,5.0,98,0.03,,,0.08,weatherlink.com 1.10,2013-09-17 12:25:00,
2013-09-17 07:40:00,61.6,61.0,30.19,SE,146,2.0,6.0,98,0.05,,,0.10,weatherlink.com 1.10,2013-09-17 12:40:00,
2013-09-17 07:55:00,61.6,61.0,30.19,SSE,150,1.0,5.0,98,0.05,,,0.11,weatherlink.com 1.10,2013-09-17 12:55:00,
2013-09-17 08:10:00,61.6,61.0,30.19,SSE,161,4.0,4.0,98,0.06,,,0.13,weatherlink.com 1.10,2013-09-17 13:10:00,
2013-09-17 08:25:00,61.7,61.0,30.18,SE,136,5.0,9.0,98,0.07,,,0.15,weatherlink.com 1.10,2013-09-17 13:25:00,
2013-09-17 08:40:00,62.0,62.0,30.18,SE,144,5.0,8.0,98,0.07,,,0.17,weatherlink.com 1.10,2013-09-17 13:40:00,
2013-09-17 08:56:00,62.3,62.0,30.18,SE,142,11.0,11.0,98,0.08,,,0.19,weatherlink.com 1.10,2013-09-17 13:56:00,
2013-09-17 09:10:00,62.5,62.0,30.19,South,179,2.0,8.0,98,0.08,,,0.21,weatherlink.com 1.10,2013-09-17 14:10:00,
2013-09-17 09:25:00,62.8,62.0,30.19,SE,144,0.0,9.0,98,0.05,,,0.21,weatherlink.com 1.10,2013-09-17 14:25:00,
2013-09-17 09:40:00,63.0,63.0,30.19,SSE,154,4.0,8.0,98,0.05,,,0.22,weatherlink.com 1.10,2013-09-17 14:40:00,
2013-09-17 09:55:00,63.2,63.0,30.19,SE,132,4.0,8.0,98,0.03,,,0.22,weatherlink.com 1.10,2013-09-17 14:55:00,
2013-09-17 10:10:00,63.4,63.0,30.20,SSE,160,2.0,7.0,98,0.04,,,0.25,weatherlink.com 1.10,2013-09-17 15:10:00,
2013-09-17 10:25:00,64.0,64.0,30.20,SE,133,4.0,6.0,98,0.06,,,0.27,weatherlink.com 1.10,2013-09-17 15:25:00,
2013-09-17 10:40:00,64.5,64.0,30.19,SE,140,2.0,4.0,98,0.05,,,0.27,weatherlink.com 1.10,2013-09-17 15:40:00,
2013-09-17 10:55:00,65.0,65.0,30.19,SSW,198,2.0,9.0,98,0.04,,,0.27,weatherlink.com 1.10,2013-09-17 15:55:00,
2013-09-17 11:10:00,65.5,65.0,30.19,SE,131,1.0,8.0,98,0.02,,,0.27,weatherlink.com 1.10,2013-09-17 16:10:00,
2013-09-17 11:25:00,66.8,66.0,30.18,SE,141,5.0,7.0,98,0.00,,,0.27,weatherlink.com 1.10,2013-09-17 16:25:00,
2013-09-17 11:40:00,68.0,67.0,30.18,SSE,156,2.0,7.0,96,0.00,,,0.27,weatherlink.com 1.10,2013-09-17 16:40:00,
2013-09-17 11:55:00,69.3,68.0,30.18,SE,124,3.0,9.0,95,0.00,,,0.27,weatherlink.com 1.10,2013-09-17 16:55:00,
2013-09-17 12:10:00,70.1,68.0,30.18,SSE,160,4.0,7.0,92,0.00,,,0.27,weatherlink.com 1.10,2013-09-17 17:10:00,
2013-09-17 12:25:00,71.2,69.0,30.18,SE,139,2.0,4.0,91,0.00,,,0.27,weatherlink.com 1.10,2013-09-17 17:25:00,
2013-09-17 12:40:00,72.0,69.0,30.17,SSE,159,1.0,3.0,89,0.00,,,0.27,weatherlink.com 1.10,2013-09-17 17:40:00,
2013-09-17 12:55:00,72.5,69.0,30.17,East,100,2.0,5.0,87,0.00,,,0.27,weatherlink.com 1.10,2013-09-17 17:55:00,
2013-09-17 13:10:00,73.0,69.0,30.17,East,100,0.0,3.0,86,0.00,,,0.27,weatherlink.com 1.10,2013-09-17 18:10:00,
2013-09-17 13:25:00,73.6,69.0,30.16,SE,128,0.0,4.0,85,0.00,,,0.27,weatherlink.com 1.10,2013-09-17 18:25:00,
2013-09-17 13:40:00,74.4,69.0,30.16,ENE,67,3.0,4.0,83,0.00,,,0.27,weatherlink.com 1.10,2013-09-17 18:40:00,
2013-09-17 13:55:00,75.6,70.0,30.15,ESE,112,1.0,4.0,82,0.00,,,0.27,weatherlink.com 1.10,2013-09-17 18:55:00,
2013-09-17 14:10:00,76.4,69.0,30.14,North,351,2.0,3.0,77,0.00,,,0.27,weatherlink.com 1.10,2013-09-17 19:10:00,
2013-09-17 14:26:00,75.7,69.0,30.14,NE,49,1.0,5.0,79,0.00,,,0.27,weatherlink.com 1.10,2013-09-17 19:26:00,
2013-09-17 14:40:00,75.6,68.0,30.13,NE,49,0.0,4.0,77,0.00,,,0.27,weatherlink.com 1.10,2013-09-17 19:40:00,
2013-09-17 14:56:00,76.6,69.0,30.13,NE,47,1.0,3.0,77,0.00,,,0.27,weatherlink.com 1.10,2013-09-17 19:56:00,
2013-09-17 15:11:00,76.7,69.0,30.12,ENE,73,3.0,5.0,77,0.00,,,0.27,weatherlink.com 1.10,2013-09-17 20:11:00,
2013-09-17 15:26:00,76.2,70.0,30.12,ENE,69,4.0,7.0,81,0.00,,,0.27,weatherlink.com 1.10,2013-09-17 20:26:00,
2013-09-17 15:41:00,75.7,70.0,30.12,NE,49,0.0,7.0,81,0.00,,,0.27,weatherlink.com 1.10,2013-09-17 20:41:00,
2013-09-17 15:56:00,75.3,69.0,30.11,ENE,71,3.0,5.0,80,0.00,,,0.27,weatherlink.com 1.10,2013-09-17 20:56:00,
2013-09-17 16:11:00,75.2,69.0,30.10,ENE,78,7.0,8.0,82,0.00,,,0.27,weatherlink.com 1.10,2013-09-17 21:11:00,
2013-09-17 16:26:00,74.8,70.0,30.10,ENE,78,5.0,9.0,84,0.00,,,0.27,weatherlink.com 1.10,2013-09-17 21:26:00,
2013-09-17 16:41:00,74.5,69.0,30.09,ENE,75,5.0,8.0,84,0.00,,,0.27,weatherlink.com 1.10,2013-09-17 21:41:00,
2013-09-17 16:56:00,74.8,69.0,30.09,ENE,71,5.0,9.0,83,0.00,,,0.27,weatherlink.com 1.10,2013-09-17 21:56:00,
2013-09-17 17:11:00,75.1,70.0,30.09,ENE,67,4.0,9.0,83,0.00,,,0.27,weatherlink.com 1.10,2013-09-17 22:11:00,
2013-09-17 17:26:00,75.2,69.0,30.09,East,92,6.0,10.0,81,0.00,,,0.27,weatherlink.com 1.10,2013-09-17 22:26:00,
2013-09-17 17:41:00,75.6,69.0,30.09,ESE,113,7.0,9.0,80,0.00,,,0.27,weatherlink.com 1.10,2013-09-17 22:41:00,
2013-09-17 17:56:00,75.7,68.0,30.09,East,99,5.0,8.0,78,0.00,,,0.27,weatherlink.com 1.10,2013-09-17 22:56:00,
2013-09-17 18:11:00,74.7,68.0,30.08,ESE,105,4.0,10.0,80,0.00,,,0.27,weatherlink.com 1.10,2013-09-17 23:11:00,
2013-09-17 18:26:00,74.0,68.0,30.08,ESE,115,5.0,9.0,82,0.00,,,0.27,weatherlink.com 1.10,2013-09-17 23:26:00,
2013-09-17 18:41:00,73.3,68.0,30.07,ESE,111,5.0,9.0,83,0.00,,,0.27,weatherlink.com 1.10,2013-09-17 23:41:00,
2013-09-17 18:56:00,72.8,68.0,30.06,ESE,111,3.0,9.0,84,0.00,,,0.27,weatherlink.com 1.10,2013-09-17 23:56:00,
2013-09-17 19:11:00,72.4,68.0,30.06,ESE,109,3.0,7.0,85,0.00,,,0.27,weatherlink.com 1.10,2013-09-18 00:11:00,
2013-09-17 19:26:00,72.0,68.0,30.06,ESE,104,3.0,8.0,86,0.00,,,0.27,weatherlink.com 1.10,2013-09-18 00:26:00,
2013-09-17 19:41:00,71.8,68.0,30.06,ESE,111,4.0,7.0,86,0.00,,,0.27,weatherlink.com 1.10,2013-09-18 00:41:00,
2013-09-17 19:56:00,71.5,68.0,30.06,ESE,119,3.0,8.0,87,0.00,,,0.27,weatherlink.com 1.10,2013-09-18 00:56:00,
2013-09-17 20:11:00,71.3,67.0,30.06,ESE,118,3.0,9.0,87,0.00,,,0.27,weatherlink.com 1.10,2013-09-18 01:11:00,
2013-09-17 20:26:00,71.2,67.0,30.06,SE,126,4.0,7.0,87,0.00,,,0.27,weatherlink.com 1.10,2013-09-18 01:26:00,
2013-09-17 20:41:00,71.3,67.0,30.06,ESE,107,4.0,9.0,87,0.00,,,0.27,weatherlink.com 1.10,2013-09-18 01:41:00,
2013-09-17 20:56:00,71.4,67.0,30.06,ESE,111,5.0,9.0,87,0.00,,,0.27,weatherlink.com 1.10,2013-09-18 01:56:00,
2013-09-17 21:11:00,71.6,68.0,30.06,ESE,116,8.0,10.0,87,0.00,,,0.27,weatherlink.com 1.10,2013-09-18 02:11:00,
2013-09-17 21:26:00,71.9,68.0,30.06,SE,131,4.0,11.0,86,0.00,,,0.27,weatherlink.com 1.10,2013-09-18 02:26:00,
2013-09-17 21:41:00,71.8,68.0,30.07,SSE,159,7.0,12.0,86,0.00,,,0.27,weatherlink.com 1.10,2013-09-18 02:41:00,
2013-09-17 21:56:00,71.7,67.0,30.07,SSE,148,7.0,11.0,86,0.00,,,0.27,weatherlink.com 1.10,2013-09-18 02:56:00,
2013-09-17 22:11:00,71.7,67.0,30.07,ESE,121,8.0,12.0,86,0.00,,,0.27,weatherlink.com 1.10,2013-09-18 03:11:00,
2013-09-17 22:26:00,71.6,68.0,30.07,ESE,119,11.0,12.0,87,0.00,,,0.27,weatherlink.com 1.10,2013-09-18 03:26:00,
2013-09-17 22:41:00,71.5,68.0,30.07,SE,138,5.0,14.0,87,0.00,,,0.27,weatherlink.com 1.10,2013-09-18 03:41:00,
2013-09-17 22:56:00,71.4,67.0,30.07,SE,131,5.0,13.0,87,0.00,,,0.27,weatherlink.com 1.10,2013-09-18 03:56:00,
2013-09-17 23:11:00,71.2,67.0,30.07,ESE,115,4.0,13.0,87,0.00,,,0.27,weatherlink.com 1.10,2013-09-18 04:11:00,
2013-09-17 23:26:00,71.1,67.0,30.06,SE,140,6.0,12.0,87,0.00,,,0.27,weatherlink.com 1.10,2013-09-18 04:26:00,
2013-09-17 23:41:00,71.0,67.0,30.06,SE,146,3.0,11.0,87,0.00,,,0.27,weatherlink.com 1.10,2013-09-18 04:41:00,
2013-09-17 23:56:00,70.8,67.0,30.06,SSE,163,4.0,12.0,87,0.00,,,0.27,weatherlink.com 1.10,2013-09-18 04:56:00,